sensor_id;sensor_type;location;lat;lon;timestamp;temperature;humidity
2300;DHT22;1158;48.750;9.078;2023-12-29T00:02:05;8.50;99.90
2300;DHT22;1158;48.750;9.078;2023-12-29T00:04:31;8.50;99.90
2300;DHT22;1158;48.750;9.078;2023-12-29T00:07:00;8.50;99.90
2300;DHT22;1158;48.750;9.078;2023-12-29T00:09:27;8.40;99.90
2300;DHT22;1158;48.750;9.078;2023-12-29T00:11:54;8.40;99.90
2300;DHT22;1158;48.750;9.078;2023-12-29T00:14:20;8.30;99.90
2300;DHT22;1158;48.750;9.078;2023-12-29T00:16:47;8.30;99.90
2300;DHT22;1158;48.750;9.078;2023-12-29T00:19:14;8.30;99.90
2300;DHT22;1158;48.750;9.078;2023-12-29T00:21:41;8.20;99.90
2300;DHT22;1158;48.750;9.078;2023-12-29T00:24:09;8.20;99.90
2300;DHT22;1158;48.750;9.078;2023-12-29T00:26:36;8.20;99.90
2300;DHT22;1158;48.750;9.078;2023-12-29T00:29:02;8.20;99.90
2300;DHT22;1158;48.750;9.078;2023-12-29T00:31:31;8.30;99.90
2300;DHT22;1158;48.750;9.078;2023-12-29T00:33:58;8.20;99.90
2300;DHT22;1158;48.750;9.078;2023-12-29T00:36:24;8.20;99.90
2300;DHT22;1158;48.750;9.078;2023-12-29T00:38:51;8.20;99.90
2300;DHT22;1158;48.750;9.078;2023-12-29T00:41:19;8.20;99.90
2300;DHT22;1158;48.750;9.078;2023-12-29T00:43:46;8.20;99.90
2300;DHT22;1158;48.750;9.078;2023-12-29T00:46:14;8.20;99.90
2300;DHT22;1158;48.750;9.078;2023-12-29T00:48:41;8.30;99.90
2300;DHT22;1158;48.750;9.078;2023-12-29T00:51:08;8.30;99.90
2300;DHT22;1158;48.750;9.078;2023-12-29T00:53:34;8.40;99.90
2300;DHT22;1158;48.750;9.078;2023-12-29T00:56:02;8.40;99.90
2300;DHT22;1158;48.750;9.078;2023-12-29T00:58:30;8.40;99.90
2300;DHT22;1158;48.750;9.078;2023-12-29T01:00:57;8.40;99.90
2300;DHT22;1158;48.750;9.078;2023-12-29T01:03:24;8.40;99.90
2300;DHT22;1158;48.750;9.078;2023-12-29T01:05:50;8.50;99.90
2300;DHT22;1158;48.750;9.078;2023-12-29T01:08:17;8.50;99.90
2300;DHT22;1158;48.750;9.078;2023-12-29T01:10:44;8.50;99.90
2300;DHT22;1158;48.750;9.078;2023-12-29T01:13:11;8.40;99.90
2300;DHT22;1158;48.750;9.078;2023-12-29T01:15:39;8.50;99.90
2300;DHT22;1158;48.750;9.078;2023-12-29T01:18:09;8.50;99.90
2300;DHT22;1158;48.750;9.078;2023-12-29T01:20:36;8.50;99.90
2300;DHT22;1158;48.750;9.078;2023-12-29T01:23:04;8.50;99.90
2300;DHT22;1158;48.750;9.078;2023-12-29T01:25:31;8.50;99.90
2300;DHT22;1158;48.750;9.078;2023-12-29T01:27:57;8.50;99.90
2300;DHT22;1158;48.750;9.078;2023-12-29T01:30:24;8.50;99.90
2300;DHT22;1158;48.750;9.078;2023-12-29T01:32:52;8.40;99.90
2300;DHT22;1158;48.750;9.078;2023-12-29T01:35:19;8.50;99.90
2300;DHT22;1158;48.750;9.078;2023-12-29T01:37:46;8.50;99.90
2300;DHT22;1158;48.750;9.078;2023-12-29T01:40:13;8.50;99.90
2300;DHT22;1158;48.750;9.078;2023-12-29T01:42:40;8.50;99.90
2300;DHT22;1158;48.750;9.078;2023-12-29T01:45:20;8.50;99.90
2300;DHT22;1158;48.750;9.078;2023-12-29T01:47:47;8.50;99.90
2300;DHT22;1158;48.750;9.078;2023-12-29T01:50:16;8.50;99.90
2300;DHT22;1158;48.750;9.078;2023-12-29T01:52:44;8.60;99.90
2300;DHT22;1158;48.750;9.078;2023-12-29T01:55:15;8.60;99.90
2300;DHT22;1158;48.750;9.078;2023-12-29T01:57:42;8.60;99.90
2300;DHT22;1158;48.750;9.078;2023-12-29T02:00:12;8.60;99.90
2300;DHT22;1158;48.750;9.078;2023-12-29T02:02:39;8.60;99.90
2300;DHT22;1158;48.750;9.078;2023-12-29T02:05:06;8.60;99.90
2300;DHT22;1158;48.750;9.078;2023-12-29T02:07:34;8.60;99.90
2300;DHT22;1158;48.750;9.078;2023-12-29T02:10:01;8.60;99.90
2300;DHT22;1158;48.750;9.078;2023-12-29T02:12:29;8.70;99.90
2300;DHT22;1158;48.750;9.078;2023-12-29T02:14:55;8.70;99.90
2300;DHT22;1158;48.750;9.078;2023-12-29T02:17:25;8.60;99.90
2300;DHT22;1158;48.750;9.078;2023-12-29T02:19:53;8.60;99.90
2300;DHT22;1158;48.750;9.078;2023-12-29T02:22:19;8.70;99.90
2300;DHT22;1158;48.750;9.078;2023-12-29T02:24:48;8.70;99.90
2300;DHT22;1158;48.750;9.078;2023-12-29T02:27:25;8.60;99.90
2300;DHT22;1158;48.750;9.078;2023-12-29T02:30:06;8.60;99.90
2300;DHT22;1158;48.750;9.078;2023-12-29T02:32:37;8.60;99.90
2300;DHT22;1158;48.750;9.078;2023-12-29T02:35:05;8.60;99.90
2300;DHT22;1158;48.750;9.078;2023-12-29T02:37:34;8.60;99.90
2300;DHT22;1158;48.750;9.078;2023-12-29T02:40:05;8.60;99.90
2300;DHT22;1158;48.750;9.078;2023-12-29T02:42:32;8.70;99.90
2300;DHT22;1158;48.750;9.078;2023-12-29T02:44:58;8.60;99.90
2300;DHT22;1158;48.750;9.078;2023-12-29T02:47:25;8.60;99.90
2300;DHT22;1158;48.750;9.078;2023-12-29T02:49:52;8.50;99.90
2300;DHT22;1158;48.750;9.078;2023-12-29T02:52:20;8.40;99.90
2300;DHT22;1158;48.750;9.078;2023-12-29T02:54:46;8.40;99.90
2300;DHT22;1158;48.750;9.078;2023-12-29T02:57:14;8.40;99.90
2300;DHT22;1158;48.750;9.078;2023-12-29T02:59:41;8.30;99.90
2300;DHT22;1158;48.750;9.078;2023-12-29T03:02:08;8.30;99.90
2300;DHT22;1158;48.750;9.078;2023-12-29T03:04:35;8.30;99.90
2300;DHT22;1158;48.750;9.078;2023-12-29T03:07:02;8.30;99.90
2300;DHT22;1158;48.750;9.078;2023-12-29T03:09:28;8.30;99.90
2300;DHT22;1158;48.750;9.078;2023-12-29T03:11:55;8.30;99.90
2300;DHT22;1158;48.750;9.078;2023-12-29T03:14:23;8.30;99.90
2300;DHT22;1158;48.750;9.078;2023-12-29T03:16:50;8.30;99.90
2300;DHT22;1158;48.750;9.078;2023-12-29T03:19:17;8.30;99.90
2300;DHT22;1158;48.750;9.078;2023-12-29T03:21:43;8.20;99.90
2300;DHT22;1158;48.750;9.078;2023-12-29T03:24:10;8.20;99.90
2300;DHT22;1158;48.750;9.078;2023-12-29T03:26:37;8.30;99.90
2300;DHT22;1158;48.750;9.078;2023-12-29T03:29:04;8.30;99.90
2300;DHT22;1158;48.750;9.078;2023-12-29T03:31:32;8.30;99.90
2300;DHT22;1158;48.750;9.078;2023-12-29T03:33:59;8.20;99.90
2300;DHT22;1158;48.750;9.078;2023-12-29T03:36:26;8.20;99.90
2300;DHT22;1158;48.750;9.078;2023-12-29T03:38:53;8.00;99.90
2300;DHT22;1158;48.750;9.078;2023-12-29T03:41:20;8.00;99.90
2300;DHT22;1158;48.750;9.078;2023-12-29T03:43:46;7.90;99.90
2300;DHT22;1158;48.750;9.078;2023-12-29T03:46:16;7.90;99.90
2300;DHT22;1158;48.750;9.078;2023-12-29T03:48:45;7.90;99.90
2300;DHT22;1158;48.750;9.078;2023-12-29T03:51:12;7.90;99.90
2300;DHT22;1158;48.750;9.078;2023-12-29T03:53:39;7.80;99.90
2300;DHT22;1158;48.750;9.078;2023-12-29T03:56:07;7.90;99.90
2300;DHT22;1158;48.750;9.078;2023-12-29T03:58:34;7.90;99.90
2300;DHT22;1158;48.750;9.078;2023-12-29T04:01:01;7.90;99.90
2300;DHT22;1158;48.750;9.078;2023-12-29T04:03:27;7.80;99.90
2300;DHT22;1158;48.750;9.078;2023-12-29T04:05:55;7.70;99.90
2300;DHT22;1158;48.750;9.078;2023-12-29T04:08:22;7.70;99.90
2300;DHT22;1158;48.750;9.078;2023-12-29T04:10:49;7.80;99.90
2300;DHT22;1158;48.750;9.078;2023-12-29T04:13:16;7.80;99.90
2300;DHT22;1158;48.750;9.078;2023-12-29T04:15:42;7.70;99.90
2300;DHT22;1158;48.750;9.078;2023-12-29T04:18:09;7.80;99.90
2300;DHT22;1158;48.750;9.078;2023-12-29T04:20:36;7.70;99.90
2300;DHT22;1158;48.750;9.078;2023-12-29T04:23:05;7.70;99.90
2300;DHT22;1158;48.750;9.078;2023-12-29T04:25:32;7.80;99.90
2300;DHT22;1158;48.750;9.078;2023-12-29T04:27:59;7.80;99.90
2300;DHT22;1158;48.750;9.078;2023-12-29T04:30:26;7.80;99.90
2300;DHT22;1158;48.750;9.078;2023-12-29T04:32:53;7.80;99.90
2300;DHT22;1158;48.750;9.078;2023-12-29T04:35:19;7.80;99.90
2300;DHT22;1158;48.750;9.078;2023-12-29T04:37:46;7.70;99.90
2300;DHT22;1158;48.750;9.078;2023-12-29T04:40:14;7.60;99.90
2300;DHT22;1158;48.750;9.078;2023-12-29T04:42:41;7.60;99.90
2300;DHT22;1158;48.750;9.078;2023-12-29T04:45:08;7.50;99.90
2300;DHT22;1158;48.750;9.078;2023-12-29T04:47:35;7.50;99.90
2300;DHT22;1158;48.750;9.078;2023-12-29T04:50:03;7.50;99.90
2300;DHT22;1158;48.750;9.078;2023-12-29T04:52:31;7.50;99.90
2300;DHT22;1158;48.750;9.078;2023-12-29T04:54:58;7.60;99.90
2300;DHT22;1158;48.750;9.078;2023-12-29T04:57:26;7.50;99.90
2300;DHT22;1158;48.750;9.078;2023-12-29T04:59:53;7.50;99.90
2300;DHT22;1158;48.750;9.078;2023-12-29T05:02:20;7.50;99.90
2300;DHT22;1158;48.750;9.078;2023-12-29T05:04:46;7.40;99.90
2300;DHT22;1158;48.750;9.078;2023-12-29T05:07:13;7.40;99.90
2300;DHT22;1158;48.750;9.078;2023-12-29T05:09:40;7.50;99.90
2300;DHT22;1158;48.750;9.078;2023-12-29T05:12:07;7.50;99.90
2300;DHT22;1158;48.750;9.078;2023-12-29T05:14:35;7.60;99.90
2300;DHT22;1158;48.750;9.078;2023-12-29T05:17:02;7.60;99.90
2300;DHT22;1158;48.750;9.078;2023-12-29T05:19:28;7.60;99.90
2300;DHT22;1158;48.750;9.078;2023-12-29T05:21:55;7.70;99.90
2300;DHT22;1158;48.750;9.078;2023-12-29T05:24:22;7.70;99.90
2300;DHT22;1158;48.750;9.078;2023-12-29T05:26:48;7.60;99.90
2300;DHT22;1158;48.750;9.078;2023-12-29T05:29:15;7.60;99.90
2300;DHT22;1158;48.750;9.078;2023-12-29T05:31:43;7.70;99.90
2300;DHT22;1158;48.750;9.078;2023-12-29T05:34:10;7.60;99.90
2300;DHT22;1158;48.750;9.078;2023-12-29T05:36:37;7.60;99.90
2300;DHT22;1158;48.750;9.078;2023-12-29T05:39:04;7.60;99.90
2300;DHT22;1158;48.750;9.078;2023-12-29T05:41:32;7.50;99.90
2300;DHT22;1158;48.750;9.078;2023-12-29T05:43:59;7.50;99.90
2300;DHT22;1158;48.750;9.078;2023-12-29T05:46:26;7.50;99.90
2300;DHT22;1158;48.750;9.078;2023-12-29T05:48:54;7.50;99.90
2300;DHT22;1158;48.750;9.078;2023-12-29T05:51:22;7.50;99.90
2300;DHT22;1158;48.750;9.078;2023-12-29T05:53:48;7.50;99.90
2300;DHT22;1158;48.750;9.078;2023-12-29T05:56:15;7.40;99.90
2300;DHT22;1158;48.750;9.078;2023-12-29T05:58:42;7.40;99.90
2300;DHT22;1158;48.750;9.078;2023-12-29T06:01:09;7.50;99.90
2300;DHT22;1158;48.750;9.078;2023-12-29T06:03:36;7.50;99.90
2300;DHT22;1158;48.750;9.078;2023-12-29T06:06:04;7.50;99.90
2300;DHT22;1158;48.750;9.078;2023-12-29T06:08:31;7.50;99.90
2300;DHT22;1158;48.750;9.078;2023-12-29T06:10:58;7.50;99.90
2300;DHT22;1158;48.750;9.078;2023-12-29T06:13:25;7.50;99.90
2300;DHT22;1158;48.750;9.078;2023-12-29T06:15:51;7.60;99.90
2300;DHT22;1158;48.750;9.078;2023-12-29T06:18:18;7.60;99.90
2300;DHT22;1158;48.750;9.078;2023-12-29T06:20:45;7.60;99.90
2300;DHT22;1158;48.750;9.078;2023-12-29T06:23:13;7.70;99.90
2300;DHT22;1158;48.750;9.078;2023-12-29T06:25:39;7.70;99.90
2300;DHT22;1158;48.750;9.078;2023-12-29T06:28:07;7.70;99.90
2300;DHT22;1158;48.750;9.078;2023-12-29T06:30:34;7.60;99.90
2300;DHT22;1158;48.750;9.078;2023-12-29T06:33:00;7.70;99.90
2300;DHT22;1158;48.750;9.078;2023-12-29T06:35:27;7.70;99.90
2300;DHT22;1158;48.750;9.078;2023-12-29T06:37:54;7.70;99.90
2300;DHT22;1158;48.750;9.078;2023-12-29T06:40:22;7.70;99.90
2300;DHT22;1158;48.750;9.078;2023-12-29T06:42:48;7.70;99.90
2300;DHT22;1158;48.750;9.078;2023-12-29T06:45:15;7.70;99.90
2300;DHT22;1158;48.750;9.078;2023-12-29T06:47:42;7.70;99.90
2300;DHT22;1158;48.750;9.078;2023-12-29T06:50:09;7.70;99.90
2300;DHT22;1158;48.750;9.078;2023-12-29T06:52:38;7.60;99.90
2300;DHT22;1158;48.750;9.078;2023-12-29T06:55:05;7.60;99.90
2300;DHT22;1158;48.750;9.078;2023-12-29T06:57:34;7.60;99.90
2300;DHT22;1158;48.750;9.078;2023-12-29T07:00:00;7.70;99.90
2300;DHT22;1158;48.750;9.078;2023-12-29T07:02:27;7.70;99.90
2300;DHT22;1158;48.750;9.078;2023-12-29T07:04:54;7.70;99.90
2300;DHT22;1158;48.750;9.078;2023-12-29T07:07:21;7.70;99.90
2300;DHT22;1158;48.750;9.078;2023-12-29T07:09:47;7.70;99.90
2300;DHT22;1158;48.750;9.078;2023-12-29T07:12:14;7.70;99.90
2300;DHT22;1158;48.750;9.078;2023-12-29T07:14:42;7.70;99.90
2300;DHT22;1158;48.750;9.078;2023-12-29T07:17:09;7.80;99.90
2300;DHT22;1158;48.750;9.078;2023-12-29T07:19:36;7.80;99.90
2300;DHT22;1158;48.750;9.078;2023-12-29T07:22:03;7.80;99.90
2300;DHT22;1158;48.750;9.078;2023-12-29T07:24:32;7.70;99.90
2300;DHT22;1158;48.750;9.078;2023-12-29T07:26:58;7.70;99.90
2300;DHT22;1158;48.750;9.078;2023-12-29T07:29:25;7.70;99.90
2300;DHT22;1158;48.750;9.078;2023-12-29T07:31:53;7.70;99.90
2300;DHT22;1158;48.750;9.078;2023-12-29T07:34:20;7.70;99.90
2300;DHT22;1158;48.750;9.078;2023-12-29T07:36:47;7.70;99.90
2300;DHT22;1158;48.750;9.078;2023-12-29T07:39:14;7.70;99.90
2300;DHT22;1158;48.750;9.078;2023-12-29T07:41:41;7.80;99.90
2300;DHT22;1158;48.750;9.078;2023-12-29T07:44:10;7.80;99.90
2300;DHT22;1158;48.750;9.078;2023-12-29T07:46:37;7.80;99.90
2300;DHT22;1158;48.750;9.078;2023-12-29T07:49:05;7.90;99.90
2300;DHT22;1158;48.750;9.078;2023-12-29T07:51:32;7.90;99.90
2300;DHT22;1158;48.750;9.078;2023-12-29T07:53:59;7.90;99.90
2300;DHT22;1158;48.750;9.078;2023-12-29T07:56:26;7.90;99.90
2300;DHT22;1158;48.750;9.078;2023-12-29T07:58:53;7.90;99.90
2300;DHT22;1158;48.750;9.078;2023-12-29T08:01:19;7.90;99.90
2300;DHT22;1158;48.750;9.078;2023-12-29T08:03:46;8.00;99.90
2300;DHT22;1158;48.750;9.078;2023-12-29T08:06:14;7.90;99.90
2300;DHT22;1158;48.750;9.078;2023-12-29T08:08:41;8.00;99.90
2300;DHT22;1158;48.750;9.078;2023-12-29T08:11:12;8.00;99.90
2300;DHT22;1158;48.750;9.078;2023-12-29T08:13:40;8.00;99.90
2300;DHT22;1158;48.750;9.078;2023-12-29T08:16:07;8.00;99.90
2300;DHT22;1158;48.750;9.078;2023-12-29T08:18:34;8.00;99.90
2300;DHT22;1158;48.750;9.078;2023-12-29T08:21:01;8.00;99.90
2300;DHT22;1158;48.750;9.078;2023-12-29T08:23:29;8.00;99.90
2300;DHT22;1158;48.750;9.078;2023-12-29T08:25:56;8.10;99.90
2300;DHT22;1158;48.750;9.078;2023-12-29T08:28:23;8.10;99.90
2300;DHT22;1158;48.750;9.078;2023-12-29T08:30:50;8.10;99.90
2300;DHT22;1158;48.750;9.078;2023-12-29T08:33:17;8.10;99.90
2300;DHT22;1158;48.750;9.078;2023-12-29T08:35:44;8.10;99.90
2300;DHT22;1158;48.750;9.078;2023-12-29T08:38:12;8.10;99.90
2300;DHT22;1158;48.750;9.078;2023-12-29T08:40:40;8.10;99.90
2300;DHT22;1158;48.750;9.078;2023-12-29T08:43:11;8.10;99.90
2300;DHT22;1158;48.750;9.078;2023-12-29T08:45:38;8.20;99.90
2300;DHT22;1158;48.750;9.078;2023-12-29T08:48:05;8.20;99.90
2300;DHT22;1158;48.750;9.078;2023-12-29T08:50:32;8.20;99.90
2300;DHT22;1158;48.750;9.078;2023-12-29T08:52:59;8.20;99.90
2300;DHT22;1158;48.750;9.078;2023-12-29T08:55:25;8.20;99.90
2300;DHT22;1158;48.750;9.078;2023-12-29T08:57:53;8.20;99.90
2300;DHT22;1158;48.750;9.078;2023-12-29T09:00:20;8.20;99.90
2300;DHT22;1158;48.750;9.078;2023-12-29T09:02:47;8.20;99.90
2300;DHT22;1158;48.750;9.078;2023-12-29T09:05:14;8.20;99.90
2300;DHT22;1158;48.750;9.078;2023-12-29T09:07:42;8.20;99.90
2300;DHT22;1158;48.750;9.078;2023-12-29T09:10:09;8.20;99.90
2300;DHT22;1158;48.750;9.078;2023-12-29T09:12:37;8.20;99.90
2300;DHT22;1158;48.750;9.078;2023-12-29T09:15:06;8.30;99.90
2300;DHT22;1158;48.750;9.078;2023-12-29T09:17:33;8.30;99.90
2300;DHT22;1158;48.750;9.078;2023-12-29T09:20:00;8.40;99.90
2300;DHT22;1158;48.750;9.078;2023-12-29T09:22:27;8.50;99.90
2300;DHT22;1158;48.750;9.078;2023-12-29T09:24:54;8.60;99.90
2300;DHT22;1158;48.750;9.078;2023-12-29T09:27:21;8.70;99.90
2300;DHT22;1158;48.750;9.078;2023-12-29T09:29:49;8.90;99.90
2300;DHT22;1158;48.750;9.078;2023-12-29T09:32:18;8.90;99.90
2300;DHT22;1158;48.750;9.078;2023-12-29T09:34:44;8.90;99.90
2300;DHT22;1158;48.750;9.078;2023-12-29T09:37:11;8.90;99.90
2300;DHT22;1158;48.750;9.078;2023-12-29T09:39:38;8.90;99.90
2300;DHT22;1158;48.750;9.078;2023-12-29T09:42:06;9.00;99.90
2300;DHT22;1158;48.750;9.078;2023-12-29T09:44:35;9.10;99.90
2300;DHT22;1158;48.750;9.078;2023-12-29T09:47:03;9.00;99.90
2300;DHT22;1158;48.750;9.078;2023-12-29T09:49:36;9.00;99.90
2300;DHT22;1158;48.750;9.078;2023-12-29T09:52:04;9.00;99.90
2300;DHT22;1158;48.750;9.078;2023-12-29T09:54:32;8.90;99.90
2300;DHT22;1158;48.750;9.078;2023-12-29T09:56:59;8.90;99.90
2300;DHT22;1158;48.750;9.078;2023-12-29T09:59:26;9.00;99.90
2300;DHT22;1158;48.750;9.078;2023-12-29T10:01:54;9.00;99.90
2300;DHT22;1158;48.750;9.078;2023-12-29T10:04:22;9.00;99.90
2300;DHT22;1158;48.750;9.078;2023-12-29T10:06:51;9.10;99.90
2300;DHT22;1158;48.750;9.078;2023-12-29T10:09:20;9.30;99.90
2300;DHT22;1158;48.750;9.078;2023-12-29T10:11:48;9.60;99.90
2300;DHT22;1158;48.750;9.078;2023-12-29T10:14:22;9.90;99.90
2300;DHT22;1158;48.750;9.078;2023-12-29T10:16:53;10.10;99.90
2300;DHT22;1158;48.750;9.078;2023-12-29T10:19:33;10.00;99.90
2300;DHT22;1158;48.750;9.078;2023-12-29T10:22:10;9.80;99.90
2300;DHT22;1158;48.750;9.078;2023-12-29T10:24:38;9.80;99.90
2300;DHT22;1158;48.750;9.078;2023-12-29T10:27:05;9.90;99.90
2300;DHT22;1158;48.750;9.078;2023-12-29T10:29:32;10.10;99.90
2300;DHT22;1158;48.750;9.078;2023-12-29T10:31:59;10.20;99.90
2300;DHT22;1158;48.750;9.078;2023-12-29T10:34:26;10.10;99.90
2300;DHT22;1158;48.750;9.078;2023-12-29T10:36:55;10.30;99.90
2300;DHT22;1158;48.750;9.078;2023-12-29T10:39:23;10.60;99.90
2300;DHT22;1158;48.750;9.078;2023-12-29T10:41:50;10.70;99.90
2300;DHT22;1158;48.750;9.078;2023-12-29T10:44:28;10.60;99.90
2300;DHT22;1158;48.750;9.078;2023-12-29T10:46:55;10.70;99.90
2300;DHT22;1158;48.750;9.078;2023-12-29T10:49:22;10.80;99.90
2300;DHT22;1158;48.750;9.078;2023-12-29T10:51:49;11.00;99.90
2300;DHT22;1158;48.750;9.078;2023-12-29T10:54:20;10.90;99.90
2300;DHT22;1158;48.750;9.078;2023-12-29T10:57:00;11.00;99.90
2300;DHT22;1158;48.750;9.078;2023-12-29T10:59:28;11.10;99.90
2300;DHT22;1158;48.750;9.078;2023-12-29T11:01:56;11.30;99.90
2300;DHT22;1158;48.750;9.078;2023-12-29T11:04:23;11.30;99.90
2300;DHT22;1158;48.750;9.078;2023-12-29T11:06:49;11.50;99.90
2300;DHT22;1158;48.750;9.078;2023-12-29T11:09:27;11.60;99.90
2300;DHT22;1158;48.750;9.078;2023-12-29T11:11:56;11.50;99.90
2300;DHT22;1158;48.750;9.078;2023-12-29T11:14:24;11.70;99.90
2300;DHT22;1158;48.750;9.078;2023-12-29T11:16:52;11.60;99.90
2300;DHT22;1158;48.750;9.078;2023-12-29T11:19:21;11.30;99.90
2300;DHT22;1158;48.750;9.078;2023-12-29T11:21:47;11.50;99.90
2300;DHT22;1158;48.750;9.078;2023-12-29T11:24:15;11.70;99.90
2300;DHT22;1158;48.750;9.078;2023-12-29T11:26:42;11.80;99.90
2300;DHT22;1158;48.750;9.078;2023-12-29T11:29:12;12.00;99.90
2300;DHT22;1158;48.750;9.078;2023-12-29T11:31:39;12.20;99.90
2300;DHT22;1158;48.750;9.078;2023-12-29T11:34:10;12.20;99.90
2300;DHT22;1158;48.750;9.078;2023-12-29T11:36:41;12.00;99.90
2300;DHT22;1158;48.750;9.078;2023-12-29T11:39:16;12.00;99.90
2300;DHT22;1158;48.750;9.078;2023-12-29T11:41:51;12.10;99.90
2300;DHT22;1158;48.750;9.078;2023-12-29T11:44:26;12.30;99.90
2300;DHT22;1158;48.750;9.078;2023-12-29T11:46:53;12.40;99.90
2300;DHT22;1158;48.750;9.078;2023-12-29T11:49:20;12.20;99.90
2300;DHT22;1158;48.750;9.078;2023-12-29T11:51:47;12.00;99.90
2300;DHT22;1158;48.750;9.078;2023-12-29T11:54:21;12.10;99.90
2300;DHT22;1158;48.750;9.078;2023-12-29T11:56:48;12.40;99.90
2300;DHT22;1158;48.750;9.078;2023-12-29T11:59:17;12.40;99.90
2300;DHT22;1158;48.750;9.078;2023-12-29T12:01:47;12.40;99.90
2300;DHT22;1158;48.750;9.078;2023-12-29T12:04:36;12.30;99.90
2300;DHT22;1158;48.750;9.078;2023-12-29T12:07:05;12.30;99.90
2300;DHT22;1158;48.750;9.078;2023-12-29T12:09:33;12.10;99.90
2300;DHT22;1158;48.750;9.078;2023-12-29T12:12:01;12.30;99.90
2300;DHT22;1158;48.750;9.078;2023-12-29T12:14:48;12.10;99.90
2300;DHT22;1158;48.750;9.078;2023-12-29T12:17:30;11.90;99.90
2300;DHT22;1158;48.750;9.078;2023-12-29T12:19:59;12.30;99.90
2300;DHT22;1158;48.750;9.078;2023-12-29T12:22:30;12.40;99.90
2300;DHT22;1158;48.750;9.078;2023-12-29T12:24:58;12.70;99.90
2300;DHT22;1158;48.750;9.078;2023-12-29T12:27:25;13.00;99.90
2300;DHT22;1158;48.750;9.078;2023-12-29T12:29:53;12.80;99.90
2300;DHT22;1158;48.750;9.078;2023-12-29T12:32:24;13.10;99.90
2300;DHT22;1158;48.750;9.078;2023-12-29T12:34:53;13.10;99.90
2300;DHT22;1158;48.750;9.078;2023-12-29T12:37:20;12.90;99.90
2300;DHT22;1158;48.750;9.078;2023-12-29T12:39:48;12.80;99.90
2300;DHT22;1158;48.750;9.078;2023-12-29T12:42:16;12.70;99.90
2300;DHT22;1158;48.750;9.078;2023-12-29T12:44:48;12.90;99.90
2300;DHT22;1158;48.750;9.078;2023-12-29T12:47:19;12.70;99.90
2300;DHT22;1158;48.750;9.078;2023-12-29T12:49:50;12.60;99.90
2300;DHT22;1158;48.750;9.078;2023-12-29T12:52:18;12.90;99.90
2300;DHT22;1158;48.750;9.078;2023-12-29T12:54:46;13.30;99.90
2300;DHT22;1158;48.750;9.078;2023-12-29T12:57:17;13.50;99.90
2300;DHT22;1158;48.750;9.078;2023-12-29T12:59:44;13.30;99.90
2300;DHT22;1158;48.750;9.078;2023-12-29T13:02:11;13.40;99.90
2300;DHT22;1158;48.750;9.078;2023-12-29T13:04:39;13.30;99.90
2300;DHT22;1158;48.750;9.078;2023-12-29T13:07:06;13.50;99.90
2300;DHT22;1158;48.750;9.078;2023-12-29T13:09:37;13.90;99.90
2300;DHT22;1158;48.750;9.078;2023-12-29T13:12:11;13.90;99.90
2300;DHT22;1158;48.750;9.078;2023-12-29T13:14:38;13.70;99.90
2300;DHT22;1158;48.750;9.078;2023-12-29T13:17:06;13.30;99.90
2300;DHT22;1158;48.750;9.078;2023-12-29T13:19:33;12.90;99.90
2300;DHT22;1158;48.750;9.078;2023-12-29T13:22:01;12.40;99.90
2300;DHT22;1158;48.750;9.078;2023-12-29T13:24:29;12.10;99.90
2300;DHT22;1158;48.750;9.078;2023-12-29T13:26:58;12.00;99.90
2300;DHT22;1158;48.750;9.078;2023-12-29T13:29:28;11.90;99.90
2300;DHT22;1158;48.750;9.078;2023-12-29T13:31:59;11.90;99.90
2300;DHT22;1158;48.750;9.078;2023-12-29T13:34:31;11.80;99.90
2300;DHT22;1158;48.750;9.078;2023-12-29T13:37:02;11.90;99.90
2300;DHT22;1158;48.750;9.078;2023-12-29T13:39:32;11.90;99.90
2300;DHT22;1158;48.750;9.078;2023-12-29T13:42:04;11.90;99.90
2300;DHT22;1158;48.750;9.078;2023-12-29T13:44:32;11.90;99.90
2300;DHT22;1158;48.750;9.078;2023-12-29T13:46:59;11.90;99.90
2300;DHT22;1158;48.750;9.078;2023-12-29T13:49:27;11.80;99.90
2300;DHT22;1158;48.750;9.078;2023-12-29T13:51:53;11.70;99.90
2300;DHT22;1158;48.750;9.078;2023-12-29T13:54:20;11.50;99.90
2300;DHT22;1158;48.750;9.078;2023-12-29T13:56:53;11.50;99.90
2300;DHT22;1158;48.750;9.078;2023-12-29T13:59:30;11.50;99.90
2300;DHT22;1158;48.750;9.078;2023-12-29T14:01:58;11.50;99.90
2300;DHT22;1158;48.750;9.078;2023-12-29T14:04:26;11.40;99.90
2300;DHT22;1158;48.750;9.078;2023-12-29T14:06:55;11.40;99.90
2300;DHT22;1158;48.750;9.078;2023-12-29T14:09:25;11.40;99.90
2300;DHT22;1158;48.750;9.078;2023-12-29T14:11:52;11.40;99.90
2300;DHT22;1158;48.750;9.078;2023-12-29T14:14:23;11.30;99.90
2300;DHT22;1158;48.750;9.078;2023-12-29T14:16:52;11.30;99.90
2300;DHT22;1158;48.750;9.078;2023-12-29T14:19:18;11.30;99.90
2300;DHT22;1158;48.750;9.078;2023-12-29T14:21:46;11.30;99.90
2300;DHT22;1158;48.750;9.078;2023-12-29T14:24:16;11.40;99.90
2300;DHT22;1158;48.750;9.078;2023-12-29T14:26:53;11.20;99.90
2300;DHT22;1158;48.750;9.078;2023-12-29T14:29:22;11.20;99.90
2300;DHT22;1158;48.750;9.078;2023-12-29T14:31:50;11.20;99.90
2300;DHT22;1158;48.750;9.078;2023-12-29T14:34:18;11.10;99.90
2300;DHT22;1158;48.750;9.078;2023-12-29T14:36:45;11.10;99.90
2300;DHT22;1158;48.750;9.078;2023-12-29T14:39:12;11.10;99.90
2300;DHT22;1158;48.750;9.078;2023-12-29T14:41:40;11.10;99.90
2300;DHT22;1158;48.750;9.078;2023-12-29T14:44:07;11.10;99.90
2300;DHT22;1158;48.750;9.078;2023-12-29T14:46:35;11.10;99.90
2300;DHT22;1158;48.750;9.078;2023-12-29T14:49:04;11.10;99.90
2300;DHT22;1158;48.750;9.078;2023-12-29T14:51:30;11.10;99.90
2300;DHT22;1158;48.750;9.078;2023-12-29T14:53:57;11.00;99.90
2300;DHT22;1158;48.750;9.078;2023-12-29T14:56:24;11.00;99.90
2300;DHT22;1158;48.750;9.078;2023-12-29T14:58:50;10.90;99.90
2300;DHT22;1158;48.750;9.078;2023-12-29T15:01:17;10.80;99.90
2300;DHT22;1158;48.750;9.078;2023-12-29T15:03:44;10.80;99.90
2300;DHT22;1158;48.750;9.078;2023-12-29T15:06:12;10.70;99.90
2300;DHT22;1158;48.750;9.078;2023-12-29T15:08:39;10.70;99.90
2300;DHT22;1158;48.750;9.078;2023-12-29T15:11:06;10.60;99.90
2300;DHT22;1158;48.750;9.078;2023-12-29T15:13:33;10.60;99.90
2300;DHT22;1158;48.750;9.078;2023-12-29T15:16:01;10.60;99.90
2300;DHT22;1158;48.750;9.078;2023-12-29T15:18:29;10.50;99.90
2300;DHT22;1158;48.750;9.078;2023-12-29T15:20:56;10.40;99.90
2300;DHT22;1158;48.750;9.078;2023-12-29T15:23:24;10.40;99.90
2300;DHT22;1158;48.750;9.078;2023-12-29T15:25:53;10.30;99.90
2300;DHT22;1158;48.750;9.078;2023-12-29T15:28:20;10.20;99.90
2300;DHT22;1158;48.750;9.078;2023-12-29T15:30:47;10.10;99.90
2300;DHT22;1158;48.750;9.078;2023-12-29T15:33:15;10.10;99.90
2300;DHT22;1158;48.750;9.078;2023-12-29T15:35:42;10.10;99.90
2300;DHT22;1158;48.750;9.078;2023-12-29T15:38:09;10.00;99.90
2300;DHT22;1158;48.750;9.078;2023-12-29T15:40:37;9.90;99.90
2300;DHT22;1158;48.750;9.078;2023-12-29T15:43:04;9.90;99.90
2300;DHT22;1158;48.750;9.078;2023-12-29T15:45:33;9.80;99.90
2300;DHT22;1158;48.750;9.078;2023-12-29T15:48:00;9.80;99.90
2300;DHT22;1158;48.750;9.078;2023-12-29T15:50:27;9.70;99.90
2300;DHT22;1158;48.750;9.078;2023-12-29T15:52:53;9.70;99.90
2300;DHT22;1158;48.750;9.078;2023-12-29T15:55:20;9.60;99.90
2300;DHT22;1158;48.750;9.078;2023-12-29T15:57:48;9.60;99.90
2300;DHT22;1158;48.750;9.078;2023-12-29T16:00:15;9.50;99.90
2300;DHT22;1158;48.750;9.078;2023-12-29T16:02:42;9.40;99.90
2300;DHT22;1158;48.750;9.078;2023-12-29T16:05:10;9.30;99.90
2300;DHT22;1158;48.750;9.078;2023-12-29T16:07:37;9.30;99.90
2300;DHT22;1158;48.750;9.078;2023-12-29T16:10:04;9.20;99.90
2300;DHT22;1158;48.750;9.078;2023-12-29T16:12:33;9.10;99.90
2300;DHT22;1158;48.750;9.078;2023-12-29T16:15:01;9.10;99.90
2300;DHT22;1158;48.750;9.078;2023-12-29T16:17:28;9.10;99.90